x

Port Colborne (45142) Wave Buoy

8:00pm - Wed 30th Jul 2014 All times are CDT. -5 hours from GMT.

  • Sig Wave height 2.6ft
  • Peak Period 4s
  • Wind
    16mph, 18mph gusts
  • Sea Temp 71°f
  • Air Temp 69°f
  • Sea Pressure 1014.9mb
  • Port Colborne
  • Port Colborne

More Historic Weather Station data

Upgrade to MSW Pro to gain access to the past 30 days of data for over 8000 Wavebouys and Weather Stations around the globe.

Join Pro

Comparision Forecast

View Surf forecast
   
Wed 07/30 8:00pm 2.5ft 4s 16 18 mph 1014.9mb 71f 69f
7:00pm 2.5ft 5s 16 18 mph 1014.7mb 71f 69f
6:00pm 3ft 5s 13 18 mph 1014.7mb 71f 69f
5:00pm 3.5ft 5s 18 20 mph 1014.5mb 71f 69f
4:00pm 3.5ft 5s 18 20 mph 1014.1mb 71f 69f
3:00pm 3.5ft 5s 20 22 mph 1014.1mb 71f 69f
2:00pm 3.5ft 5s 18 22 mph 1014mb 71f 68f
1:00pm 3.5ft 5s 20 25 mph 1014.2mb 71f 68f
12:00pm 3.5ft 5s 22 27 mph 1014mb 71f 67f
11:00am 3.5ft 5s 20 22 mph 1014.7mb 71f 66f
10:00am 3.5ft 5s 18 22 mph 1014.8mb 71f 66f
9:00am 3.5ft 5s 18 22 mph 1014.7mb 71f 66f
8:00am 3ft 4s 20 25 mph 1014.7mb 70f 65f
7:00am 3ft 4s 20 25 mph 1014.6mb 70f 65f
6:00am 3ft 5s 18 20 mph 1014.2mb 70f 65f
5:00am 3.5ft 5s 18 22 mph 1013.9mb 70f 65f
4:00am 3.5ft 5s 18 22 mph 1013.5mb 70f 66f
3:00am 3.5ft 5s 20 25 mph 1013.6mb 70f 65f
2:00am 2.5ft 4s 22 27 mph 1013.4mb 70f 66f
1:00am 2ft 4s 16 18 mph 1014mb 70f 66f
12:00am 2.5ft 4s 13 18 mph 1014.5mb 70f 66f
Tue 07/29 11:00pm 3ft 4s 9 13 mph 1014.7mb 71f 63f
10:00pm 2.5ft 4s 20 25 mph 1014.6mb 71f 66f
9:00pm 2.5ft 5s 13 18 mph 1014.7mb 71f 67f
8:00pm 3ft 4s 16 18 mph 1014.6mb 71f 67f
7:00pm 2.5ft 4s 16 18 mph 1014.6mb 71f 67f
6:00pm 2.5ft 4s 18 22 mph 1014.6mb 71f 66f
5:00pm 2ft 3s 18 22 mph 1014.4mb 71f 66f
4:00pm 1.6ft 3s 16 18 mph 1014.4mb 71f 66f
3:00pm 1.3ft 3s 16 18 mph 1014.1mb 71f 66f
2:00pm 1ft 3s 13 18 mph 1014.3mb 71f 66f
1:00pm 0.7ft 3s 13 16 mph 1014.3mb 72f 65f
12:00pm 1ft 4s 9 11 mph 1014.5mb 71f 64f
11:00am 1ft 3s 7 9 mph 1014.6mb 71f 63f
10:00am 1ft 4s 7 9 mph 1014.4mb 71f 62f
9:00am 1.3ft 3s 7 9 mph 1014.1mb 71f 62f
8:00am 1.3ft 4s 9 11 mph 1013.7mb 70f 61f
7:00am 1.6ft 4s 11 13 mph 1013.5mb 70f 61f
6:00am 1.6ft 4s 13 16 mph 1012.8mb 70f 60f
5:00am 1.6ft 4s 16 18 mph 1012.2mb 70f 60f
4:00am 2ft 4s 16 18 mph 1011.8mb 70f 60f
3:00am 2ft 4s 18 20 mph 1011.4mb 70f 60f
2:00am 2ft 4s 18 20 mph 1011.4mb 70f 60f
1:00am 2ft 4s 16 20 mph 1011.6mb 70f 60f
12:00am 2ft 6s 13 16 mph 1012mb 70f 59f
Mon 07/28 11:00pm  -   -  16
mph
1011.7mb 70f 61f
10:00pm 2ft 4s 20 22 mph 1011.6mb 70f 62f
9:00pm 2.5ft 4s 18 22 mph 1011.7mb 71f 62f
8:00pm 2ft 3s 22 25 mph 1011.1mb 71f 62f
7:00pm 1.6ft 3s 20 25 mph 1010.4mb 71f 64f
6:00pm 2ft 3s 20 25 mph 1009.7mb 71f 66f
5:00pm 1.6ft 3s 20 27 mph 1009.2mb 71f 67f
4:00pm 1.3ft 3s 16 20 mph 1008.6mb 71f 67f
3:00pm 1.3ft 3s 13 20 mph 1008.3mb 71f 67f
2:00pm 1.6ft 3s 16 20 mph 1008mb 71f 65f
1:00pm 2ft 3s 18 22 mph 1007.6mb 71f 62f
12:00pm 2.5ft 3s 20 25 mph 1007.1mb 71f 61f
11:00am 3ft 4s 25 31 mph 1006.3mb 71f 61f
10:00am 3ft 4s 27 31 mph 1005.4mb 71f 62f
9:00am 2.5ft 4s 25 31 mph 1004.1mb 71f 64f
8:00am 2ft 3s 25 31 mph 1003.1mb 71f 65f
7:00am 1ft 2s 22 27 mph 1001.7mb 71f 64f
6:00am 0.7ft 4s 11 13 mph 1001.7mb 72f 67f
5:00am 1ft 4s 4 7 mph 1001.6mb 72f 67f
4:00am 1ft 3s 9 13 mph 1001.6mb 72f 67f
3:00am 1.3ft 3s 11 13 mph 1001.3mb 72f 66f
2:00am 1.6ft 3s 13 18 mph 1001.4mb 72f 66f
1:00am 1.6ft 5s 16 20 mph 1001.5mb 72f 66f
12:00am 1.6ft 4s 13
mph
1002.3mb 72f 66f
Sun 07/27 11:00pm 1.3ft 3s 7 9 mph 1003.4mb 72f 67f
10:00pm 1.3ft 3s 13 16 mph 1004mb 72f 67f
9:00pm 1ft 3s 22 27 mph 1003.7mb 72f 69f
8:00pm 1ft 4s 13 16 mph 1002mb 72f 72f
7:00pm 1ft 4s 4
mph
1002.7mb 73f 73f
6:00pm 1ft 4s 4
mph
1003mb 73f 73f
5:00pm 1.3ft 4s 7 9 mph 1003.5mb 73f 73f
4:00pm 1.6ft 3s 2 4 mph 1003.5mb 73f 73f
3:00pm 2ft 4s 13 16 mph 1004.7mb 73f 73f
2:00pm 1.6ft 5s 16 18 mph 1005.9mb 73f 72f
1:00pm 1.6ft 3s 11 13 mph 1005.9mb 73f 72f
12:00pm 2ft 4s 13 18 mph 1006.7mb 72f 71f
11:00am 2.5ft 5s 16 18 mph 1007mb 72f 71f
10:00am 2ft 5s 13 16 mph 1007.1mb 72f 71f
9:00am 2ft 4s 11 13 mph 1007.1mb 72f 71f
8:00am 2.5ft 5s 9 11 mph 1006.7mb 72f 70f
7:00am 2.5ft 5s 13 16 mph 1006.9mb 71f 71f
6:00am 3ft 5s 16 18 mph 1006.6mb 71f 71f
5:00am 3.5ft 5s 16 18 mph 1006.2mb 71f 72f
4:00am 3.5ft 5s 18 22 mph 1005.9mb 72f 72f
3:00am 3.5ft 5s 20 25 mph 1005.8mb 72f 72f